Time;durP1;ratioP1;P1;durP2;ratioP2;P2;SDS_P1;SDS_P2;PMS_P1;PMS_P2;Temp;Humidity;BMP_temperature;BMP_pressure;BME280_temperature;BME280_humidity;BME280_pressure;Samples;Min_cycle;Max_cycle;Signal;HPM_P1;HPM_P2
2021/12/31 00:00:08;;;;;;;4.22;2.17;;;11.90;99.90;;;;;;4954121;28;20172;-85
2021/12/31 00:02:34;;;;;;;4.45;2.40;;;11.90;99.90;;;;;;4616490;28;10000577;-87
2021/12/31 00:05:00;;;;;;;5.72;2.58;;;11.80;99.90;;;;;;4957242;28;20362;-87
2021/12/31 00:07:26;;;;;;;5.22;2.50;;;11.80;99.90;;;;;;4967079;28;20046;-86
2021/12/31 00:09:51;;;;;;;6.40;2.70;;;11.80;99.90;;;;;;4962734;28;20522;-86
2021/12/31 00:12:17;;;;;;;4.80;2.70;;;11.80;99.90;;;;;;4966566;28;20027;-88
2021/12/31 00:14:43;;;;;;;6.07;3.00;;;11.80;99.90;;;;;;4964639;28;20050;-87
2021/12/31 00:17:09;;;;;;;5.53;2.60;;;11.70;99.90;;;;;;4955075;28;20175;-87
2021/12/31 00:19:40;;;;;;;5.35;2.40;;;11.70;99.90;;;;;;4962183;28;20054;-87
2021/12/31 00:22:34;;;;;;;5.60;2.60;;;11.70;99.90;;;;;;4954839;28;20057;-86
2021/12/31 00:24:52;;;;;;;4.60;2.38;;;11.70;99.90;;;;;;4961304;28;20542;-87
2021/12/31 00:27:18;;;;;;;5.15;2.42;;;11.70;99.90;;;;;;4966913;28;20492;-87
2021/12/31 00:29:44;;;;;;;3.80;2.25;;;11.70;99.90;;;;;;4968862;28;20081;-85
2021/12/31 00:32:10;;;;;;;4.47;2.20;;;11.70;99.90;;;;;;4962790;28;20053;-86
2021/12/31 00:34:35;;;;;;;6.50;2.30;;;11.70;99.90;;;;;;4960422;28;20027;-86
2021/12/31 00:37:01;;;;;;;4.82;2.17;;;11.60;99.90;;;;;;4966512;28;20468;-86
2021/12/31 00:39:27;;;;;;;5.70;2.30;;;11.60;99.90;;;;;;4968318;28;20608;-86
2021/12/31 00:41:52;;;;;;;6.60;2.67;;;11.70;99.90;;;;;;4965539;28;20040;-86
2021/12/31 00:44:19;;;;;;;3.28;1.85;;;11.60;99.90;;;;;;4968429;28;20073;-86
2021/12/31 00:46:44;;;;;;;3.20;1.98;;;11.70;99.90;;;;;;4962854;28;20106;-85
2021/12/31 00:49:10;;;;;;;2.55;2.13;;;11.60;99.90;;;;;;4961990;28;20153;-86
2021/12/31 00:51:36;;;;;;;3.08;2.20;;;11.70;99.90;;;;;;4955432;28;20086;-86
2021/12/31 00:54:01;;;;;;;4.40;2.55;;;11.60;99.90;;;;;;4963899;28;20023;-86
2021/12/31 00:56:27;;;;;;;3.97;2.13;;;11.60;99.90;;;;;;4964448;28;20430;-86
2021/12/31 00:58:53;;;;;;;3.50;2.20;;;11.70;99.90;;;;;;4956124;28;20031;-85
2021/12/31 01:01:21;;;;;;;5.43;2.40;;;11.70;99.90;;;;;;4960014;28;20037;-85
2021/12/31 01:03:48;;;;;;;4.68;2.58;;;11.70;99.90;;;;;;4961202;28;20034;-84
2021/12/31 01:06:14;;;;;;;4.38;2.90;;;11.70;99.90;;;;;;4954990;28;20439;-85
2021/12/31 01:08:40;;;;;;;3.65;3.20;;;11.70;99.90;;;;;;4963111;28;20050;-85
2021/12/31 01:11:05;;;;;;;4.82;2.67;;;11.70;99.90;;;;;;4959629;28;20030;-85
2021/12/31 01:13:47;;;;;;;4.88;2.60;;;11.60;99.90;;;;;;4965190;28;20478;-85
2021/12/31 01:16:13;;;;;;;6.38;2.67;;;11.60;99.90;;;;;;4956955;28;20488;-86
2021/12/31 01:21:17;;;;;;;5.50;2.60;;;11.60;99.90;;;;;;4964449;28;20039;-86
2021/12/31 01:23:43;;;;;;;6.53;2.50;;;11.60;99.90;;;;;;4964377;28;20027;-86
2021/12/31 01:26:08;;;;;;;5.15;2.50;;;11.60;99.90;;;;;;4961712;28;20045;-87
2021/12/31 01:28:34;;;;;;;5.38;2.40;;;11.60;99.90;;;;;;4965610;28;20483;-86
2021/12/31 01:30:59;;;;;;;5.13;2.55;;;11.60;99.90;;;;;;4955622;28;20295;-86
2021/12/31 01:33:25;;;;;;;5.88;2.60;;;11.50;99.90;;;;;;4962980;28;20023;-86
2021/12/31 01:35:51;;;;;;;3.35;2.38;;;11.60;99.90;;;;;;4967674;28;20041;-86
2021/12/31 01:38:17;;;;;;;3.58;2.30;;;11.60;99.90;;;;;;4972422;28;20053;-87
2021/12/31 01:40:43;;;;;;;3.63;2.08;;;11.60;99.90;;;;;;4964480;28;20039;-86
2021/12/31 01:43:11;;;;;;;4.53;2.20;;;11.60;99.90;;;;;;4966207;28;20396;-86
2021/12/31 01:45:43;;;;;;;2.13;1.90;;;11.60;99.90;;;;;;4967668;28;20022;-87
2021/12/31 01:48:28;;;;;;;1.90;1.35;;;11.60;99.90;;;;;;4964454;28;20593;-87
2021/12/31 01:50:54;;;;;;;3.38;1.70;;;11.60;99.90;;;;;;4962992;28;20071;-87
2021/12/31 01:53:26;;;;;;;2.65;1.73;;;11.60;99.90;;;;;;4954771;28;20030;-87
2021/12/31 01:55:55;;;;;;;1.75;1.20;;;11.60;99.90;;;;;;4961600;28;20027;-87
2021/12/31 01:58:23;;;;;;;1.98;1.30;;;11.60;99.90;;;;;;4959717;28;20038;-87
2021/12/31 02:00:49;;;;;;;2.20;1.40;;;11.60;99.90;;;;;;4960027;28;20027;-86
2021/12/31 02:03:17;;;;;;;4.32;1.45;;;11.60;99.90;;;;;;4961889;28;20050;-86
2021/12/31 02:05:42;;;;;;;3.28;1.20;;;11.60;99.90;;;;;;4957704;28;20032;-85
2021/12/31 02:08:08;;;;;;;3.22;1.20;;;11.70;99.90;;;;;;4965898;28;20323;-85
2021/12/31 02:10:33;;;;;;;1.25;1.08;;;11.70;99.90;;;;;;4965655;28;20031;-85
2021/12/31 02:12:59;;;;;;;2.88;1.20;;;11.70;99.90;;;;;;4964521;28;20027;-85
2021/12/31 02:15:26;;;;;;;3.97;1.27;;;11.70;99.90;;;;;;4964581;28;20511;-85
2021/12/31 02:17:53;;;;;;;2.90;1.30;;;11.70;99.90;;;;;;4963152;28;20038;-84
2021/12/31 02:20:20;;;;;;;1.48;1.00;;;11.70;99.90;;;;;;4966681;28;20034;-85
2021/12/31 02:22:54;;;;;;;2.88;1.20;;;11.70;99.90;;;;;;4967106;28;20034;-84
2021/12/31 02:25:23;;;;;;;1.48;1.38;;;11.70;99.90;;;;;;4966950;28;20033;-85
2021/12/31 02:27:50;;;;;;;2.80;1.50;;;11.70;99.90;;;;;;4957504;28;20045;-84
2021/12/31 02:30:15;;;;;;;2.40;1.30;;;11.60;99.90;;;;;;4963583;28;20035;-84
2021/12/31 02:32:41;;;;;;;2.55;1.30;;;11.60;99.90;;;;;;4960848;28;20549;-84
2021/12/31 02:35:09;;;;;;;5.47;1.65;;;11.60;99.90;;;;;;4960316;28;20035;-84
2021/12/31 02:37:35;;;;;;;3.00;1.45;;;11.50;99.90;;;;;;4964680;28;20038;-84
2021/12/31 02:40:08;;;;;;;3.50;1.50;;;11.50;99.90;;;;;;4966543;28;20431;-85
2021/12/31 02:42:33;;;;;;;1.67;1.40;;;11.50;99.90;;;;;;4972842;28;20042;-85
2021/12/31 02:44:59;;;;;;;3.65;1.55;;;11.50;99.90;;;;;;4963017;28;20043;-84
2021/12/31 02:47:25;;;;;;;5.78;1.70;;;11.50;99.90;;;;;;4955929;28;20034;-86
2021/12/31 02:49:51;;;;;;;1.75;1.50;;;11.50;99.90;;;;;;4961167;28;20392;-86
2021/12/31 02:52:17;;;;;;;4.32;1.63;;;11.50;99.90;;;;;;4972588;28;20054;-86
2021/12/31 02:54:47;;;;;;;1.52;1.40;;;11.50;99.90;;;;;;4959628;28;20030;-86
2021/12/31 02:57:14;;;;;;;3.70;1.55;;;11.50;99.90;;;;;;4951682;28;20034;-86
2021/12/31 02:59:40;;;;;;;1.40;1.27;;;11.50;99.90;;;;;;4963838;28;20034;-87
2021/12/31 03:02:07;;;;;;;2.72;1.55;;;11.50;99.90;;;;;;4963650;28;20038;-87
2021/12/31 03:04:36;;;;;;;1.63;1.40;;;11.50;99.90;;;;;;4956392;28;20387;-87
2021/12/31 03:07:04;;;;;;;3.90;1.40;;;11.50;99.90;;;;;;4953347;28;20162;-87
2021/12/31 03:09:32;;;;;;;2.15;1.30;;;11.50;99.90;;;;;;4958752;28;20028;-86
2021/12/31 03:11:59;;;;;;;2.78;1.40;;;11.60;99.90;;;;;;4964406;28;20035;-86
2021/12/31 03:14:26;;;;;;;1.60;1.10;;;11.50;99.90;;;;;;4951668;28;20054;-86
2021/12/31 03:16:52;;;;;;;1.52;1.33;;;11.60;99.90;;;;;;4961785;28;20026;-86
2021/12/31 03:19:19;;;;;;;3.90;1.50;;;11.50;99.90;;;;;;4960801;28;20026;-87
2021/12/31 03:21:45;;;;;;;3.47;1.80;;;11.60;99.90;;;;;;4956738;28;20415;-87
2021/12/31 03:24:10;;;;;;;1.90;1.55;;;11.60;99.90;;;;;;4964360;28;20043;-87
2021/12/31 03:26:36;;;;;;;7.95;2.00;;;11.50;99.90;;;;;;4964186;28;20069;-86
2021/12/31 03:29:02;;;;;;;4.55;1.85;;;11.60;99.90;;;;;;4961435;28;20034;-86
2021/12/31 03:31:28;;;;;;;4.45;2.10;;;11.60;99.90;;;;;;4956312;28;20031;-85
2021/12/31 03:33:53;;;;;;;1.60;1.50;;;11.60;99.90;;;;;;4959139;28;20031;-85
2021/12/31 03:36:19;;;;;;;6.00;1.88;;;11.60;99.90;;;;;;4962267;28;20740;-86
2021/12/31 03:38:45;;;;;;;3.08;2.00;;;11.60;99.90;;;;;;4964910;28;20035;-85
2021/12/31 03:41:10;;;;;;;5.07;2.25;;;11.60;99.90;;;;;;4960868;28;20110;-86
2021/12/31 03:43:36;;;;;;;3.50;2.25;;;11.60;99.90;;;;;;4958286;28;20164;-86
2021/12/31 03:46:02;;;;;;;7.32;1.92;;;11.50;99.90;;;;;;4963326;28;20022;-88
2021/12/31 03:48:27;;;;;;;4.88;2.22;;;11.50;99.90;;;;;;4957839;28;20093;-86
2021/12/31 03:50:53;;;;;;;3.95;2.50;;;11.50;99.90;;;;;;4963654;28;20109;-86
2021/12/31 03:53:19;;;;;;;7.47;2.42;;;11.60;99.90;;;;;;4954100;28;20023;-87
2021/12/31 03:55:45;;;;;;;5.30;2.22;;;11.60;99.90;;;;;;4957319;28;20387;-86
2021/12/31 03:58:11;;;;;;;5.38;2.67;;;11.60;99.90;;;;;;4957900;28;20042;-86
2021/12/31 04:00:37;;;;;;;5.50;2.72;;;11.50;99.90;;;;;;4960083;28;20035;-87
2021/12/31 04:03:10;;;;;;;3.25;2.35;;;11.50;99.90;;;;;;4966934;28;20458;-86
2021/12/31 04:05:37;;;;;;;;;;;11.60;99.90;;;;;;4965581;28;20026;-85
2021/12/31 04:08:03;;;;;;;5.28;2.70;;;11.50;99.90;;;;;;4965712;28;19924;-85
2021/12/31 04:10:28;;;;;;;9.60;3.35;;;11.60;99.90;;;;;;4960058;28;20027;-86
2021/12/31 04:12:55;;;;;;;8.75;2.95;;;11.50;99.90;;;;;;4958621;28;20082;-85
2021/12/31 04:15:20;;;;;;;11.45;3.90;;;11.50;99.90;;;;;;4965793;28;20030;-85
2021/12/31 04:17:47;;;;;;;6.63;3.25;;;11.50;99.90;;;;;;4965188;28;20050;-87
2021/12/31 04:20:32;;;;;;;9.75;3.38;;;11.50;99.90;;;;;;4969343;28;20089;-85
2021/12/31 04:22:58;;;;;;;8.80;3.90;;;11.50;99.90;;;;;;4956395;28;20031;-86
2021/12/31 04:25:24;;;;;;;6.20;3.13;;;11.50;99.90;;;;;;4960276;28;20034;-86
2021/12/31 04:27:51;;;;;;;6.88;3.47;;;11.50;99.90;;;;;;4968716;28;20031;-86
2021/12/31 04:30:17;;;;;;;9.52;3.40;;;11.50;99.90;;;;;;4965542;28;20031;-85
2021/12/31 04:32:43;;;;;;;8.52;3.63;;;11.50;99.90;;;;;;4958385;28;20023;-86
2021/12/31 04:35:11;;;;;;;9.50;4.00;;;11.50;99.90;;;;;;4962344;28;20030;-86
2021/12/31 04:37:39;;;;;;;8.93;3.83;;;11.50;99.90;;;;;;4963262;28;20089;-87
2021/12/31 04:40:07;;;;;;;11.77;3.97;;;11.50;99.90;;;;;;4964114;28;20041;-86
2021/12/31 04:42:32;;;;;;;10.65;3.80;;;11.50;99.90;;;;;;4963907;28;20034;-86
2021/12/31 04:44:58;;;;;;;8.30;3.97;;;11.60;99.90;;;;;;4967713;28;20194;-86
2021/12/31 04:47:24;;;;;;;10.05;4.18;;;11.60;99.90;;;;;;4965325;28;20090;-87
2021/12/31 04:49:49;;;;;;;7.32;3.80;;;11.60;99.90;;;;;;4956852;28;20447;-86
2021/12/31 04:52:15;;;;;;;9.00;3.95;;;11.50;99.90;;;;;;4966868;28;20030;-87
2021/12/31 04:54:40;;;;;;;11.85;4.22;;;11.50;99.90;;;;;;4959208;28;20027;-86
2021/12/31 04:57:06;;;;;;;9.23;3.67;;;11.60;99.90;;;;;;4955228;28;20115;-87
2021/12/31 04:59:32;;;;;;;8.30;3.65;;;11.60;99.90;;;;;;4959572;28;20428;-86
2021/12/31 05:01:57;;;;;;;10.65;3.40;;;11.60;99.90;;;;;;4969849;28;20030;-87
2021/12/31 05:04:23;;;;;;;10.23;3.85;;;11.60;99.90;;;;;;4963258;28;20031;-87
2021/12/31 05:06:50;;;;;;;7.65;3.80;;;11.60;99.90;;;;;;4963651;28;20044;-84
2021/12/31 05:09:16;;;;;;;7.07;3.70;;;11.60;99.90;;;;;;4965126;28;20030;-87
2021/12/31 05:11:42;;;;;;;10.95;3.58;;;11.60;99.90;;;;;;4962944;28;20065;-87
2021/12/31 05:14:08;;;;;;;7.43;3.42;;;11.60;99.90;;;;;;4965882;28;20033;-87
2021/12/31 05:16:35;;;;;;;10.77;3.63;;;11.60;99.90;;;;;;4965385;28;20030;-88
2021/12/31 05:19:02;;;;;;;7.60;3.60;;;11.60;99.90;;;;;;4963938;28;20034;-88
2021/12/31 05:21:28;;;;;;;7.78;3.53;;;11.50;99.90;;;;;;4967148;28;21610;-86
2021/12/31 05:23:54;;;;;;;10.38;3.88;;;11.50;99.90;;;;;;4961841;28;20031;-86
2021/12/31 05:26:19;;;;;;;11.20;3.80;;;11.50;99.90;;;;;;4964883;28;20031;-87
2021/12/31 05:28:45;;;;;;;7.47;3.45;;;11.60;99.90;;;;;;4964840;28;20034;-86
2021/12/31 05:31:10;;;;;;;12.02;3.72;;;11.60;99.90;;;;;;4967587;28;20021;-86
2021/12/31 05:33:36;;;;;;;7.97;3.90;;;11.60;99.90;;;;;;4965490;28;20042;-87
2021/12/31 05:36:02;;;;;;;9.35;3.75;;;11.50;99.90;;;;;;4967666;28;20182;-86
2021/12/31 05:38:27;;;;;;;9.38;3.70;;;11.50;99.90;;;;;;4966892;28;20118;-86
2021/12/31 05:40:53;;;;;;;8.77;3.80;;;11.50;99.90;;;;;;4962782;28;20109;-86
2021/12/31 05:43:19;;;;;;;10.95;3.50;;;11.50;99.90;;;;;;4968641;28;20560;-86
2021/12/31 05:45:44;;;;;;;6.18;3.33;;;11.50;99.90;;;;;;4961936;28;20089;-86
2021/12/31 05:48:10;;;;;;;9.80;3.92;;;11.50;99.90;;;;;;4963302;28;20035;-87
2021/12/31 05:50:36;;;;;;;8.15;3.13;;;11.50;99.90;;;;;;4962078;28;20037;-86
2021/12/31 05:53:02;;;;;;;10.00;3.55;;;11.50;99.90;;;;;;4959504;28;20735;-86
2021/12/31 05:55:28;;;;;;;7.97;3.40;;;11.50;99.90;;;;;;4965055;28;20038;-86
2021/12/31 05:57:55;;;;;;;9.50;3.35;;;11.50;99.90;;;;;;4965890;28;20069;-86
2021/12/31 06:00:24;;;;;;;8.75;3.22;;;11.50;99.90;;;;;;4965898;28;20030;-86
2021/12/31 06:02:50;;;;;;;6.45;3.08;;;11.50;99.90;;;;;;4966016;28;20035;-86
2021/12/31 06:05:15;;;;;;;9.70;3.67;;;11.50;99.90;;;;;;4964995;28;20054;-86
2021/12/31 06:07:41;;;;;;;10.63;3.72;;;11.50;99.90;;;;;;4966712;28;20703;-85
2021/12/31 06:10:08;;;;;;;8.57;2.90;;;11.50;99.90;;;;;;4966149;28;20490;-87
2021/12/31 06:12:35;;;;;;;7.35;3.00;;;11.50;99.90;;;;;;4959627;28;20034;-86
2021/12/31 06:15:03;;;;;;;8.13;3.65;;;11.50;99.90;;;;;;4965343;28;20023;-87
2021/12/31 06:17:29;;;;;;;10.55;3.40;;;11.50;99.90;;;;;;4965706;28;20035;-86
2021/12/31 06:19:55;;;;;;;6.82;2.83;;;11.50;99.90;;;;;;4964242;28;20027;-86
2021/12/31 06:22:21;;;;;;;6.38;2.92;;;11.50;99.90;;;;;;4967016;28;20114;-87
2021/12/31 06:24:47;;;;;;;8.10;3.10;;;11.50;99.90;;;;;;4966714;28;20101;-86
2021/12/31 06:27:12;;;;;;;10.18;3.00;;;11.50;99.90;;;;;;4963502;28;20058;-87
2021/12/31 06:29:38;;;;;;;8.52;3.10;;;11.50;99.90;;;;;;4968614;28;20047;-87
2021/12/31 06:32:04;;;;;;;5.53;2.80;;;11.50;99.90;;;;;;4967806;28;20742;-86
2021/12/31 06:34:30;;;;;;;7.88;3.47;;;11.40;99.90;;;;;;4962543;28;20546;-86
2021/12/31 06:36:56;;;;;;;11.85;2.90;;;11.40;99.90;;;;;;4958689;28;20174;-86
2021/12/31 06:39:21;;;;;;;7.78;2.85;;;11.40;99.90;;;;;;4967393;28;20035;-87
2021/12/31 06:41:47;;;;;;;8.70;3.17;;;11.40;99.90;;;;;;4966729;28;20391;-87
2021/12/31 06:44:13;;;;;;;9.45;3.50;;;11.30;99.90;;;;;;4967338;28;20031;-87
2021/12/31 06:46:39;;;;;;;7.30;3.25;;;11.30;99.90;;;;;;4960120;28;20458;-86
2021/12/31 06:49:05;;;;;;;6.40;3.58;;;11.30;99.90;;;;;;4974610;28;20038;-86
2021/12/31 06:51:31;;;;;;;11.13;4.57;;;11.20;99.90;;;;;;4958153;28;20037;-86
2021/12/31 06:53:56;;;;;;;12.43;5.63;;;11.20;99.90;;;;;;4964204;28;20521;-86
2021/12/31 06:56:22;;;;;;;16.15;7.18;;;11.20;99.90;;;;;;4975391;28;20454;-88
2021/12/31 06:58:47;;;;;;;8.52;3.60;;;11.10;99.90;;;;;;4963033;28;20031;-87
2021/12/31 07:01:13;;;;;;;9.45;3.58;;;11.00;99.90;;;;;;4959218;28;20034;-86
2021/12/31 07:03:39;;;;;;;6.65;3.30;;;11.00;99.90;;;;;;4967207;28;20130;-86
2021/12/31 07:06:04;;;;;;;8.13;2.97;;;11.00;99.90;;;;;;4963460;28;20116;-86
2021/12/31 07:08:30;;;;;;;8.85;2.90;;;10.90;99.90;;;;;;4961706;28;20050;-86
2021/12/31 07:10:55;;;;;;;8.10;2.95;;;10.90;99.90;;;;;;4957321;28;20031;-86
2021/12/31 07:13:21;;;;;;;9.23;3.13;;;10.90;99.90;;;;;;4977426;28;20057;-86
2021/12/31 07:15:49;;;;;;;9.95;3.38;;;10.90;99.90;;;;;;4957382;28;20054;-86
2021/12/31 07:18:20;;;;;;;16.63;8.85;;;10.80;99.90;;;;;;4956589;28;20039;-85
2021/12/31 07:20:46;;;;;;;16.30;8.35;;;10.80;99.90;;;;;;4960055;28;20105;-86
2021/12/31 07:23:14;;;;;;;16.35;6.60;;;10.80;99.90;;;;;;4956274;28;20610;-86
2021/12/31 07:25:40;;;;;;;13.23;6.00;;;10.70;99.90;;;;;;4286129;28;10001230;-87
2021/12/31 07:28:08;;;;;;;7.22;3.67;;;10.70;99.90;;;;;;4976615;28;20045;-86
2021/12/31 07:30:34;;;;;;;7.47;4.78;;;10.80;99.90;;;;;;4969865;28;20392;-86
2021/12/31 07:32:59;;;;;;;9.38;5.43;;;10.70;99.90;;;;;;4978822;28;20577;-86
2021/12/31 07:35:26;;;;;;;14.80;6.93;;;10.70;99.90;;;;;;4976587;28;20030;-86
2021/12/31 07:37:55;;;;;;;15.10;8.93;;;10.80;99.90;;;;;;4981387;28;20938;-89
2021/12/31 07:40:37;;;;;;;11.88;8.10;;;10.80;99.90;;;;;;4978702;28;20783;-90
2021/12/31 07:43:04;;;;;;;11.30;6.72;;;10.80;99.90;;;;;;4976232;28;20507;-89
2021/12/31 07:45:30;;;;;;;11.13;4.50;;;10.80;99.90;;;;;;4977981;28;20165;-89
2021/12/31 07:47:55;;;;;;;7.78;4.00;;;10.90;99.90;;;;;;4977453;28;20118;-90
2021/12/31 07:50:21;;;;;;;6.75;3.35;;;10.90;99.90;;;;;;4974047;28;20031;-90
2021/12/31 07:52:46;;;;;;;7.38;3.67;;;10.90;99.90;;;;;;4974518;28;20089;-89
2021/12/31 07:55:12;;;;;;;7.03;3.28;;;10.90;99.90;;;;;;4977656;28;20621;-89
2021/12/31 07:57:38;;;;;;;9.52;3.50;;;10.90;99.90;;;;;;4965565;28;20031;-89
2021/12/31 08:00:05;;;;;;;5.20;3.00;;;10.90;99.90;;;;;;4956976;28;20034;-89
2021/12/31 08:02:31;;;;;;;7.22;3.22;;;10.90;99.90;;;;;;4958731;28;20026;-90
2021/12/31 08:04:56;;;;;;;7.80;2.97;;;10.90;99.90;;;;;;4959703;28;20042;-82
2021/12/31 08:07:22;;;;;;;11.98;3.80;;;10.90;99.90;;;;;;4985438;28;20063;-96
2021/12/31 08:09:48;;;;;;;7.97;3.25;;;10.90;99.90;;;;;;4952923;28;20031;-85
2021/12/31 08:12:13;;;;;;;7.13;3.45;;;10.90;99.90;;;;;;4984158;28;20015;-95
2021/12/31 08:14:39;;;;;;;7.50;3.70;;;10.90;99.90;;;;;;4973655;28;20011;-93
2021/12/31 08:17:05;;;;;;;8.30;3.40;;;11.00;99.90;;;;;;4972231;28;20023;-90
2021/12/31 08:19:30;;;;;;;9.45;3.50;;;10.80;99.90;;;;;;4968081;28;20031;-83
2021/12/31 08:21:56;;;;;;;;;;;10.80;99.90;;;;;;4621511;28;10001108;-92
2021/12/31 08:24:21;;;;;;;5.07;3.50;;;10.80;99.90;;;;;;4976187;28;20073;-93
2021/12/31 08:26:47;;;;;;;5.93;3.60;;;10.80;99.90;;;;;;4970751;28;20068;-92
2021/12/31 08:29:13;;;;;;;9.27;3.38;;;10.80;99.90;;;;;;4966489;28;20043;-92
2021/12/31 08:31:40;;;;;;;6.50;3.70;;;10.80;99.90;;;;;;4965219;28;20031;-91
2021/12/31 08:34:08;;;;;;;5.53;3.22;;;10.80;99.90;;;;;;4965074;28;20034;-91
2021/12/31 08:36:35;;;;;;;6.97;3.60;;;10.80;99.90;;;;;;4965988;28;20174;-92
2021/12/31 08:39:02;;;;;;;9.35;3.67;;;10.80;99.90;;;;;;4958696;28;20030;-93
2021/12/31 08:41:28;;;;;;;9.05;3.22;;;10.80;99.90;;;;;;4968340;28;20114;-92
2021/12/31 08:43:53;;;;;;;7.28;3.42;;;10.90;99.90;;;;;;4973223;28;20166;-93
2021/12/31 08:46:19;;;;;;;7.63;3.33;;;10.90;99.90;;;;;;4965127;28;20038;-91
2021/12/31 08:48:44;;;;;;;8.40;3.80;;;10.90;99.90;;;;;;4963438;28;20363;-94
2021/12/31 08:51:10;;;;;;;6.10;2.80;;;11.00;99.90;;;;;;4969657;28;20031;-93
2021/12/31 08:53:36;;;;;;;8.43;3.63;;;11.00;99.90;;;;;;4964358;28;20380;-92
2021/12/31 08:56:01;;;;;;;8.93;3.35;;;11.10;99.90;;;;;;4960922;28;20368;-93
2021/12/31 08:58:27;;;;;;;6.72;3.60;;;11.20;99.90;;;;;;4964912;28;20038;-90
2021/12/31 09:00:52;;;;;;;10.73;3.75;;;11.30;99.90;;;;;;4970266;28;20038;-92
2021/12/31 09:03:18;;;;;;;9.45;3.80;;;11.30;99.90;;;;;;4967944;28;20027;-91
2021/12/31 09:05:44;;;;;;;7.28;3.05;;;11.30;99.90;;;;;;4970211;28;20041;-92
2021/12/31 09:08:09;;;;;;;6.32;3.30;;;11.40;99.90;;;;;;4968745;28;20046;-93
2021/12/31 09:10:35;;;;;;;7.97;3.38;;;11.40;99.90;;;;;;4965632;28;20162;-91
2021/12/31 09:13:00;;;;;;;7.20;3.33;;;11.50;99.90;;;;;;4970068;28;20027;-94
2021/12/31 09:15:26;;;;;;;7.50;3.13;;;11.50;99.90;;;;;;4969156;28;20031;-91
2021/12/31 09:17:54;;;;;;;9.00;3.53;;;11.60;99.90;;;;;;4961175;28;20129;-91
2021/12/31 09:20:20;;;;;;;5.20;3.20;;;11.60;99.90;;;;;;4960739;28;20035;-93
2021/12/31 09:22:46;;;;;;;5.30;3.30;;;11.70;99.90;;;;;;4966513;28;20480;-92
2021/12/31 09:25:12;;;;;;;9.48;3.88;;;11.70;99.90;;;;;;4967142;28;20110;-93
2021/12/31 09:27:37;;;;;;;6.75;3.10;;;11.70;99.90;;;;;;4961849;28;20034;-92
2021/12/31 09:30:04;;;;;;;7.93;4.47;;;11.80;99.90;;;;;;4965074;28;20054;-92
2021/12/31 09:32:29;;;;;;;8.13;3.80;;;11.80;99.90;;;;;;4962929;28;20362;-91
2021/12/31 09:34:55;;;;;;;9.45;3.63;;;11.90;99.90;;;;;;4962789;28;20030;-91
2021/12/31 09:37:21;;;;;;;6.65;3.40;;;11.90;99.90;;;;;;4951677;29;20024;-91
2021/12/31 09:39:46;;;;;;;7.65;3.30;;;11.90;99.90;;;;;;4951413;28;20521;-91
2021/12/31 09:42:13;;;;;;;5.60;3.90;;;11.90;99.90;;;;;;4970460;28;20077;-90
2021/12/31 09:44:38;;;;;;;5.88;3.67;;;11.90;99.90;;;;;;4980976;28;20085;-91
2021/12/31 09:47:10;;;;;;;9.93;3.80;;;11.90;99.90;;;;;;4966600;28;20027;-91
2021/12/31 09:49:38;;;;;;;11.88;4.30;;;11.90;99.90;;;;;;4957831;28;20257;-91
2021/12/31 09:52:04;;;;;;;6.70;4.30;;;11.90;99.90;;;;;;4958800;28;20103;-92
2021/12/31 09:54:30;;;;;;;7.97;3.28;;;11.90;99.90;;;;;;4965672;28;20034;-91
2021/12/31 09:56:56;;;;;;;8.82;4.85;;;12.00;99.90;;;;;;4966921;28;20027;-91
2021/12/31 09:59:24;;;;;;;8.98;3.80;;;12.00;99.90;;;;;;4966922;28;20514;-90
2021/12/31 10:01:52;;;;;;;7.35;3.28;;;12.00;99.90;;;;;;4968428;28;20046;-90
2021/12/31 10:04:18;;;;;;;5.50;3.40;;;12.00;99.90;;;;;;4960143;28;20034;-91
2021/12/31 10:07:05;;;;;;;10.23;3.53;;;12.00;99.90;;;;;;4967830;28;20031;-86
2021/12/31 10:09:31;;;;;;;8.07;3.72;;;11.90;99.90;;;;;;4960268;28;20023;-91
2021/12/31 10:11:57;;;;;;;7.18;3.75;;;11.90;99.90;;;;;;4964307;28;20036;-89
2021/12/31 10:14:34;;;;;;;7.63;3.42;;;11.90;99.90;;;;;;4955315;28;20502;-88
2021/12/31 10:17:00;;;;;;;6.35;3.30;;;11.90;99.90;;;;;;4969203;28;20030;-90
2021/12/31 10:19:25;;;;;;;7.65;3.78;;;11.90;99.90;;;;;;4963582;28;20067;-91
2021/12/31 10:21:54;;;;;;;8.88;4.10;;;11.80;99.90;;;;;;4615938;28;9999877;-82
2021/12/31 10:24:25;;;;;;;8.00;3.22;;;11.80;99.90;;;;;;4955642;28;20313;-81
2021/12/31 10:26:52;;;;;;;5.32;2.80;;;11.80;99.90;;;;;;4953559;28;20034;-81
2021/12/31 10:29:18;;;;;;;7.03;3.42;;;11.80;99.90;;;;;;4965094;28;20129;-81
2021/12/31 10:31:45;;;;;;;6.55;3.35;;;11.90;99.90;;;;;;4956377;28;20027;-92
2021/12/31 10:34:28;;;;;;;8.32;3.17;;;11.90;99.90;;;;;;4957445;28;20038;-92
2021/12/31 10:36:55;;;;;;;6.55;2.85;;;11.90;99.90;;;;;;4961365;28;20031;-93
2021/12/31 10:39:26;;;;;;;4.93;2.95;;;12.00;99.90;;;;;;4956186;28;20058;-93
2021/12/31 10:42:13;;;;;;;6.70;3.00;;;12.00;99.90;;;;;;4963064;28;20077;-94
2021/12/31 10:44:52;;;;;;;5.38;3.10;;;12.00;99.90;;;;;;4966239;28;20443;-94
2021/12/31 10:47:33;;;;;;;8.73;2.95;;;11.90;99.90;;;;;;4961258;28;20117;-93
2021/12/31 10:50:08;;;;;;;5.82;2.35;;;12.00;99.90;;;;;;4964367;28;20129;-93
2021/12/31 10:52:41;;;;;;;4.72;2.65;;;12.00;99.90;;;;;;4965707;28;20050;-94
2021/12/31 10:55:24;;;;;;;7.35;3.03;;;12.00;99.90;;;;;;4963687;28;20426;-93
2021/12/31 10:57:52;;;;;;;12.70;4.47;;;11.90;99.90;;;;;;4958956;28;20030;-92
2021/12/31 11:00:19;;;;;;;7.57;4.32;;;12.00;99.90;;;;;;4966035;28;20283;-94
2021/12/31 11:02:46;;;;;;;9.02;3.55;;;12.10;99.90;;;;;;4966357;28;20038;-91
2021/12/31 11:05:13;;;;;;;6.40;3.05;;;12.10;99.90;;;;;;4964954;28;20034;-93
2021/12/31 11:07:40;;;;;;;7.43;2.90;;;12.10;99.90;;;;;;4961491;28;20142;-95
2021/12/31 11:10:07;;;;;;;6.95;3.05;;;12.20;99.90;;;;;;4962134;28;20027;-94
2021/12/31 11:12:34;;;;;;;5.55;2.95;;;12.20;99.90;;;;;;4958048;28;20052;-93
2021/12/31 11:15:00;;;;;;;6.97;3.20;;;12.30;99.90;;;;;;4963746;28;20341;-94
2021/12/31 11:17:26;;;;;;;11.25;3.95;;;12.40;99.90;;;;;;4967405;28;20030;-93
2021/12/31 11:19:52;;;;;;;5.97;3.35;;;12.50;99.90;;;;;;4959116;28;20345;-94
2021/12/31 11:22:23;;;;;;;11.57;2.60;;;12.50;99.90;;;;;;4966659;28;20513;-93
2021/12/31 11:24:48;;;;;;;8.32;3.70;;;12.60;99.90;;;;;;4961575;28;20035;-94
2021/12/31 11:27:30;;;;;;;8.32;3.80;;;12.60;99.90;;;;;;4967889;28;20506;-95
2021/12/31 11:29:59;;;;;;;6.55;3.50;;;12.70;99.90;;;;;;4962359;28;20035;-94
2021/12/31 11:32:45;;;;;;;4.85;1.85;;;12.80;99.90;;;;;;4965836;28;20027;-88
2021/12/31 11:35:30;;;;;;;5.00;2.20;;;12.90;99.90;;;;;;4953495;28;20046;-88
2021/12/31 11:37:56;;;;;;;4.57;2.25;;;13.00;99.90;;;;;;4960424;28;20062;-88
2021/12/31 11:40:28;;;;;;;6.18;2.22;;;13.10;99.90;;;;;;4973170;28;20030;-93
2021/12/31 11:43:13;;;;;;;4.97;1.88;;;13.20;99.90;;;;;;4625934;28;10000020;-94
2021/12/31 11:45:40;;;;;;;3.72;1.70;;;13.30;99.90;;;;;;4953740;28;20226;-90
2021/12/31 11:48:44;;;;;;;9.15;2.60;;;13.40;99.90;;;;;;4960488;28;20069;-91
2021/12/31 11:51:16;;;;;;;4.72;2.00;;;13.70;99.90;;;;;;4903468;29;20028;-89
2021/12/31 11:54:13;;;;;;;3.78;1.85;;;14.00;99.90;;;;;;4902133;29;20033;-91
2021/12/31 11:56:45;;;;;;;3.03;1.70;;;14.30;99.90;;;;;;4933601;28;20386;-92
2021/12/31 11:59:16;;;;;;;5.22;2.17;;;14.40;99.90;;;;;;4962355;28;20034;-91
2021/12/31 12:01:47;;;;;;;4.10;1.80;;;14.40;99.90;;;;;;4964537;28;20042;-91
2021/12/31 12:04:34;;;;;;;4.28;1.90;;;14.40;99.90;;;;;;4957961;28;20059;-91
2021/12/31 12:07:06;;;;;;;4.82;2.10;;;14.30;99.90;;;;;;4958971;28;20030;-90
2021/12/31 12:09:37;;;;;;;7.25;2.17;;;14.20;99.90;;;;;;4967255;28;20031;-90
2021/12/31 12:12:17;;;;;;;3.85;1.55;;;14.00;99.90;;;;;;4958804;28;20039;-91
2021/12/31 12:14:45;;;;;;;2.40;1.55;;;13.90;99.90;;;;;;4962722;28;20031;-90
2021/12/31 12:17:37;;;;;;;3.95;1.42;;;13.80;99.90;;;;;;4963342;28;20030;-92
2021/12/31 12:20:03;;;;;;;3.75;1.70;;;13.60;99.90;;;;;;4961851;28;20093;-90
2021/12/31 12:22:28;;;;;;;4.20;1.70;;;13.50;99.90;;;;;;4967872;28;20035;-92
2021/12/31 12:25:03;;;;;;;3.72;1.80;;;13.50;99.90;;;;;;4971054;28;20038;-90
2021/12/31 12:27:29;;;;;;;4.13;1.88;;;13.40;99.90;;;;;;4967238;28;20037;-91
2021/12/31 12:29:58;;;;;;;3.40;1.40;;;13.30;99.90;;;;;;4967308;28;20375;-92
2021/12/31 12:35:27;;;;;;;3.88;1.35;;;13.10;99.90;;;;;;4953947;28;20130;-91
2021/12/31 12:38:00;;;;;;;2.10;1.20;;;13.00;99.90;;;;;;4969833;28;20042;-90
2021/12/31 12:40:36;;;;;;;3.80;1.30;;;12.90;99.90;;;;;;4978886;28;20026;-91
2021/12/31 12:43:05;;;;;;;2.38;1.33;;;12.90;99.90;;;;;;4962597;28;20038;-91
2021/12/31 12:45:30;;;;;;;3.85;1.40;;;12.80;99.90;;;;;;4968127;28;20491;-90
2021/12/31 12:47:56;;;;;;;4.90;1.30;;;12.70;99.90;;;;;;4965168;28;20035;-90
2021/12/31 12:50:22;;;;;;;3.15;1.17;;;12.70;99.90;;;;;;4965375;28;20027;-90
2021/12/31 12:52:55;;;;;;;3.35;1.38;;;12.60;99.90;;;;;;4965371;28;20110;-91